Darstellungsparameter: Aktuell verwendete Einstellungen:
Skalierung der Graphiken ... ?
xyx+y,   Skalierungsfaktor:      Skalierung: Modus: x, Faktor: 1
Darstellungszeitraum ... ?
Vom - - bis: - -   Zeitraum: 02.06.2011 - 06.06.2011
Min/Max/Avg-Anzeige ... ?
Zeige MMA aktuell
Zeige MMA Monat
Zeige MMA alles
Zeige --A aktuell
Zeige --A Monat
Zeige --A alles
Keine MMA-Anzeige
MMA:
Keine MMA-Graphiken
MMA-Basis: 02.06.2011 - 06.06.2011
Quicknavigation für Darstellung... ?
Tage:      1T, 2T, 3T, 5T -1T -2T -3T -5T +1T +2T +3T +5T
Wochen: 1W, 2W, 3W -1W -2W -3W +1W +2W +3W
Monate: 1M, 3M, 6M -1M -3M -6M +1M +3M +6M
Jahre:    1J, 3J, 5J, 10J -1J -3J -5J -10J +1J +3J +5J +10J
Nutze für die Darstellung ... ?
Originaldaten oder Mittelwerte auf ...
Stundenbasis Tagesbasis Wochenbasis
Monatsbasis Jahresbasis      Datenbasis: Original-Daten
Darstellen als:
Statistik (Auto) Statistik J:M      Darstellung:
Zur Graphik,    zurück zur Übersicht aller Sensoren.
 
Tabellarische Datenbersicht: ?
 
Sensor: Nr:Datum:Temp:Abs-Feuchte:Windchill:Wind:
Aussen-T/F 1 02-06-2011 00:02:18 15.5 C 6.21 g/m*3 15.5 C 0 km/h
2 02-06-2011 00:14:19 15.2 C 6.36 g/m*3 15.2 C 0 km/h
3 02-06-2011 00:26:19 15.2 C 6.23 g/m*3 15.2 C 0 km/h
4 02-06-2011 00:38:19 14.8 C 7.22 g/m*3 14.8 C 0 km/h
5 02-06-2011 00:50:19 14.3 C 7.25 g/m*3 14.3 C 0 km/h
6 02-06-2011 01:02:19 14.1 C 7.28 g/m*3 14.1 C 0 km/h
7 02-06-2011 01:14:19 13.9 C 7.43 g/m*3 13.9 C 0 km/h
8 02-06-2011 01:26:19 13.8 C 7.39 g/m*3 13.8 C 0 km/h
9 02-06-2011 01:38:19 13.8 C 7.27 g/m*3 13.8 C 0 km/h
10 02-06-2011 01:50:19 13.7 C 7.34 g/m*3 13.7 C 0 km/h
11 02-06-2011 02:02:19 13.7 C 7.46 g/m*3 13.7 C 0 km/h
12 02-06-2011 02:14:19 13.5 C 7.37 g/m*3 13.5 C 0 km/h
13 02-06-2011 02:26:19 13.5 C 7.25 g/m*3 13.5 C 0 km/h
14 02-06-2011 02:38:19 13.3 C 6.93 g/m*3 13.3 C 0 km/h
15 02-06-2011 02:50:19 13.3 C 7.16 g/m*3 13.3 C 0 km/h
16 02-06-2011 03:02:19 13.1 C 6.85 g/m*3 13.1 C 0 km/h
17 02-06-2011 03:14:19 12.7 C 6.68 g/m*3 12.7 C 0 km/h
18 02-06-2011 03:26:19 12.2 C 6.58 g/m*3 12.2 C 0 km/h
19 02-06-2011 03:38:19 11.4 C 6.47 g/m*3 11.4 C 0 km/h
20 02-06-2011 03:50:19 10.7 C 6.38 g/m*3 10.7 C 0 km/h
21 02-06-2011 04:02:19 10.4 C 6.36 g/m*3 10.4 C 0 km/h
22 02-06-2011 04:14:20 10.5 C 6.3 g/m*3 10.5 C 0 km/h
23 02-06-2011 04:26:20 10.7 C 6.38 g/m*3 10.7 C 0 km/h
24 02-06-2011 04:38:20 10.6 C 6.25 g/m*3 10.6 C 0 km/h
25 02-06-2011 04:50:20 10 C 6.2 g/m*3 10 C 0 km/h
Sensor: Nr:Datum:Temp:Abs-Feuchte:Windchill:Wind:
Aussen-T/F 26 02-06-2011 05:02:20 9.6 C 6.23 g/m*3 9.6 C 0 km/h
27 02-06-2011 05:14:20 9.2 C 6.16 g/m*3 9.2 C 0 km/h
28 02-06-2011 05:26:20 9.1 C 6.21 g/m*3 9.1 C 0 km/h
29 02-06-2011 05:38:20 8.9 C 6.31 g/m*3 8.9 C 0 km/h
30 02-06-2011 05:50:20 8.7 C 6.14 g/m*3 8.7 C 0 km/h
31 02-06-2011 06:02:20 8.6 C 6.19 g/m*3 8.6 C 0 km/h
32 02-06-2011 06:14:20 8.8 C 6.35 g/m*3 8.8 C 0 km/h
33 02-06-2011 06:26:20 9 C 6.35 g/m*3 9 C 0 km/h
34 02-06-2011 06:38:20 8.9 C 6.48 g/m*3 8.9 C 0 km/h
35 02-06-2011 06:50:20 8.8 C 6.44 g/m*3 8.8 C 0 km/h
36 02-06-2011 07:02:04 8.9 C 6.57 g/m*3 8.9 C 0 km/h
37 02-06-2011 07:14:04 9.3 C 6.56 g/m*3 9.3 C 0 km/h
38 02-06-2011 07:26:03 9.7 C 6.64 g/m*3 9.7 C 0 km/h
39 02-06-2011 07:38:04 10 C 6.58 g/m*3 10 C 0 km/h
40 02-06-2011 07:50:03 10 C 6.48 g/m*3 10 C 0 km/h
41 02-06-2011 08:02:02 10 C 6.58 g/m*3 10 C 0 km/h
42 02-06-2011 08:14:02 10.5 C 6.79 g/m*3 10.5 C 0 km/h
43 02-06-2011 08:26:03 10.8 C 6.92 g/m*3 10.8 C 0 km/h
44 02-06-2011 08:38:03 11.2 C 6.89 g/m*3 11.2 C 0 km/h
45 02-06-2011 08:50:01 11.8 C 6.95 g/m*3 11.8 C 0 km/h
46 02-06-2011 09:02:02 12.3 C 6.84 g/m*3 12.3 C 0 km/h
47 02-06-2011 09:14:02 13 C 6.8 g/m*3 13 C 0 km/h
48 02-06-2011 09:26:02 13.5 C 6.32 g/m*3 13.5 C 0 km/h
49 02-06-2011 09:38:02 13.5 C 6.32 g/m*3 13.5 C 0 km/h
50 02-06-2011 09:50:02 13.5 C 6.32 g/m*3 13.5 C 0 km/h
Sensor: Nr:Datum:Temp:Abs-Feuchte:Windchill:Wind:
Aussen-T/F 51 02-06-2011 10:02:02 13.5 C 6.32 g/m*3 13.5 C 0 km/h
52 02-06-2011 10:14:02 13.5 C 6.32 g/m*3 13.5 C 0 km/h
53 02-06-2011 10:26:02 13.5 C 6.32 g/m*3 13.5 C 0 km/h
54 02-06-2011 10:38:02 13.5 C 6.32 g/m*3 13.5 C 0 km/h
55 02-06-2011 10:50:02 13.5 C 6.32 g/m*3 13.5 C 0 km/h
56 02-06-2011 11:02:02 13.5 C 6.32 g/m*3 13.5 C 0 km/h
57 02-06-2011 11:14:02 19.1 C 4.26 g/m*3 19.1 C 0 km/h
58 02-06-2011 11:26:01 19.2 C 4.12 g/m*3 19.2 C 0 km/h
59 02-06-2011 11:38:03 19.3 C 4.15 g/m*3 19.3 C 0 km/h
60 02-06-2011 11:50:02 19.3 C 4.15 g/m*3 19.3 C 0 km/h
61 02-06-2011 12:02:04 19.3 C 4.15 g/m*3 19.3 C 0 km/h
62 02-06-2011 12:14:04 19.3 C 4.15 g/m*3 19.3 C 0 km/h
63 02-06-2011 12:26:02 20.1 C 4 g/m*3 20.1 C 0 km/h
64 02-06-2011 12:38:02 20.1 C 3.82 g/m*3 20.1 C 0 km/h
65 02-06-2011 12:50:02 20.5 C 3.74 g/m*3 20.5 C 0 km/h
66 02-06-2011 13:02:03 21.1 C 3.87 g/m*3 21.1 C 0 km/h
67 02-06-2011 13:14:03 21.4 C 3.75 g/m*3 21.4 C 0 km/h
68 02-06-2011 13:26:02 25.3 C 4.68 g/m*3 25.3 C 0 km/h
69 02-06-2011 13:38:03 27.9 C 5.41 g/m*3 27.9 C 0 km/h
70 02-06-2011 13:50:02 30 C 6.06 g/m*3 30 C 0 km/h
71 02-06-2011 14:02:02 30.1 C 6.1 g/m*3 30.1 C 0 km/h
72 02-06-2011 14:14:02 30.4 C 6.2 g/m*3 30.4 C 0 km/h
73 02-06-2011 14:26:02 30.3 C 6.16 g/m*3 30.3 C 0 km/h
74 02-06-2011 14:38:02 30.2 C 6.13 g/m*3 30.2 C 0 km/h
75 02-06-2011 14:50:02 30.1 C 6.1 g/m*3 30.1 C 0 km/h
Sensor: Nr:Datum:Temp:Abs-Feuchte:Windchill:Wind:
Aussen-T/F 76 02-06-2011 15:02:03 30.1 C 6.1 g/m*3 30.1 C 0 km/h
77 02-06-2011 15:14:03 30 C 6.06 g/m*3 30 C 0 km/h
78 02-06-2011 15:26:03 30.3 C 6.16 g/m*3 30.3 C 0 km/h
79 02-06-2011 15:38:03 30.7 C 6.3 g/m*3 30.7 C 0 km/h
80 02-06-2011 15:50:02 30.7 C 6.3 g/m*3 30.7 C 0 km/h
81 02-06-2011 16:02:03 30.1 C 6.1 g/m*3 30.1 C 0 km/h
82 02-06-2011 16:14:03 30.4 C 6.2 g/m*3 30.4 C 0 km/h
83 02-06-2011 16:26:02 30.1 C 6.1 g/m*3 30.1 C 0 km/h
84 02-06-2011 16:38:02 31.2 C 6.47 g/m*3 31.2 C 0 km/h
85 02-06-2011 16:50:03 31.3 C 6.5 g/m*3 31.3 C 0 km/h
86 02-06-2011 17:02:03 31.1 C 6.43 g/m*3 31.1 C 0 km/h
87 02-06-2011 17:14:03 30.7 C 6.3 g/m*3 30.7 C 0 km/h
88 02-06-2011 17:26:03 30.2 C 6.13 g/m*3 30.2 C 0 km/h
89 02-06-2011 17:38:02 30.8 C 6.33 g/m*3 30.8 C 0 km/h
90 02-06-2011 17:50:02 30.6 C 6.26 g/m*3 30.6 C 0 km/h
91 02-06-2011 18:02:01 30.6 C 6.26 g/m*3 30.6 C 0 km/h
92 02-06-2011 18:14:01 30.6 C 6.26 g/m*3 30.6 C 0 km/h
93 02-06-2011 18:26:01 30.6 C 6.26 g/m*3 30.6 C 0 km/h
94 02-06-2011 18:38:02 30.6 C 6.26 g/m*3 30.6 C 0 km/h
95 02-06-2011 18:50:01 30.6 C 6.26 g/m*3 30.6 C 0 km/h
96 02-06-2011 19:02:02 30.6 C 6.26 g/m*3 30.6 C 0 km/h
97 02-06-2011 19:14:02 30.6 C 6.26 g/m*3 30.6 C 0 km/h
98 02-06-2011 19:26:02 30.6 C 6.26 g/m*3 30.6 C 0 km/h
99 02-06-2011 19:38:02 30.6 C 6.26 g/m*3 30.6 C 0 km/h
100 02-06-2011 19:50:01 30.6 C 6.26 g/m*3 30.6 C 0 km/h
Sensor: Nr:Datum:Temp:Abs-Feuchte:Windchill:Wind:
Aussen-T/F 101 02-06-2011 20:02:02 30.6 C 6.26 g/m*3 30.6 C 0 km/h
102 02-06-2011 20:14:02 30.6 C 6.26 g/m*3 30.6 C 0 km/h
103 02-06-2011 20:26:02 30.6 C 6.26 g/m*3 30.6 C 0 km/h
104 02-06-2011 20:38:01 30.6 C 6.26 g/m*3 30.6 C 0 km/h
105 02-06-2011 20:50:02 30.6 C 6.26 g/m*3 30.6 C 0 km/h
106 02-06-2011 21:02:02 30.6 C 6.26 g/m*3 30.6 C 0 km/h
107 02-06-2011 21:14:02 30.6 C 6.26 g/m*3 30.6 C 0 km/h
108 02-06-2011 21:26:02 30.6 C 6.26 g/m*3 30.6 C 0 km/h
109 02-06-2011 21:38:02 30.6 C 6.26 g/m*3 30.6 C 0 km/h
110 02-06-2011 21:50:02 30.6 C 6.26 g/m*3 30.6 C 0 km/h
111 02-06-2011 22:02:02 30.6 C 6.26 g/m*3 30.6 C 0 km/h
112 02-06-2011 22:14:02 30.6 C 6.26 g/m*3 30.6 C 0 km/h
113 02-06-2011 22:27:02 16 C 5.59 g/m*3 16 C 0 km/h
114 02-06-2011 22:39:02 16 C 5.59 g/m*3 16 C 0 km/h
115 02-06-2011 22:51:02 16 C 5.59 g/m*3 16 C 0 km/h
116 02-06-2011 23:03:02 16 C 5.59 g/m*3 16 C 0 km/h
117 02-06-2011 23:15:02 16 C 5.59 g/m*3 16 C 0 km/h
118 02-06-2011 23:27:03 16 C 5.59 g/m*3 16 C 0 km/h
119 02-06-2011 23:39:03 16 C 5.59 g/m*3 16 C 0 km/h
120 02-06-2011 23:51:03 16 C 5.59 g/m*3 16 C 0 km/h
121 03-06-2011 00:03:03 16 C 5.59 g/m*3 16 C 0 km/h
122 03-06-2011 00:15:03 16 C 5.59 g/m*3 16 C 0 km/h
123 03-06-2011 00:27:03 16 C 5.59 g/m*3 16 C 0 km/h
124 03-06-2011 00:39:03 16 C 5.59 g/m*3 16 C 0 km/h
125 03-06-2011 00:51:03 16 C 5.59 g/m*3 16 C 0 km/h
Sensor: Nr:Datum:Temp:Abs-Feuchte:Windchill:Wind:
Aussen-T/F 126 03-06-2011 01:03:03 13.3 C 5.66 g/m*3 13.3 C 0 km/h
127 03-06-2011 01:15:03 13.2 C 5.63 g/m*3 13.2 C 0 km/h
128 03-06-2011 01:27:03 13.1 C 5.82 g/m*3 13.1 C 0 km/h
129 03-06-2011 01:39:03 12.9 C 5.97 g/m*3 12.9 C 0 km/h
130 03-06-2011 01:51:03 12.8 C 5.94 g/m*3 12.8 C 0 km/h
131 03-06-2011 02:03:03 12.8 C 5.71 g/m*3 12.8 C 0 km/h
132 03-06-2011 02:15:03 12.6 C 5.64 g/m*3 12.6 C 0 km/h
133 03-06-2011 02:27:03 12.4 C 5.68 g/m*3 12.4 C 0 km/h
134 03-06-2011 02:39:03 12.2 C 5.72 g/m*3 12.2 C 0 km/h
135 03-06-2011 02:51:03 11.9 C 5.82 g/m*3 11.9 C 0 km/h
136 03-06-2011 03:03:03 11.9 C 5.93 g/m*3 11.9 C 0 km/h
137 03-06-2011 03:15:03 11.7 C 5.96 g/m*3 11.7 C 0 km/h
138 03-06-2011 03:27:03 11.7 C 5.86 g/m*3 11.7 C 0 km/h
139 03-06-2011 03:39:04 11.6 C 5.72 g/m*3 11.6 C 0 km/h
140 03-06-2011 03:51:04 11.5 C 5.68 g/m*3 11.5 C 0 km/h
141 03-06-2011 04:03:04 11.6 C 5.72 g/m*3 11.6 C 0 km/h
142 03-06-2011 04:15:04 11.4 C 5.65 g/m*3 11.4 C 0 km/h
143 03-06-2011 04:27:04 11.3 C 5.71 g/m*3 11.3 C 0 km/h
144 03-06-2011 04:39:04 11.4 C 5.65 g/m*3 11.4 C 0 km/h
145 03-06-2011 04:51:04 11 C 5.51 g/m*3 11 C 0 km/h
146 03-06-2011 05:03:04 11 C 5.61 g/m*3 11 C 0 km/h
147 03-06-2011 05:15:04 11.2 C 5.68 g/m*3 11.2 C 0 km/h
148 03-06-2011 05:27:04 11.2 C 5.57 g/m*3 11.2 C 0 km/h
149 03-06-2011 05:39:04 11.5 C 5.78 g/m*3 11.5 C 0 km/h
150 03-06-2011 05:51:04 11.5 C 5.78 g/m*3 11.5 C 0 km/h
Sensor: Nr:Datum:Temp:Abs-Feuchte:Windchill:Wind:
Aussen-T/F 151 03-06-2011 06:03:04 11.7 C 5.96 g/m*3 11.7 C 0 km/h
152 03-06-2011 06:15:04 12.1 C 5.9 g/m*3 12.1 C 0 km/h
153 03-06-2011 06:27:04 12.5 C 6.38 g/m*3 12.5 C 0 km/h
154 03-06-2011 06:39:04 12.8 C 6.61 g/m*3 12.8 C 0 km/h
155 03-06-2011 06:51:04 12.9 C 6.42 g/m*3 12.9 C 0 km/h
156 03-06-2011 07:03:03 13.2 C 6.32 g/m*3 13.2 C 0 km/h
157 03-06-2011 07:15:01 13.6 C 6.36 g/m*3 13.6 C 0 km/h
158 03-06-2011 07:27:01 14.4 C 6.06 g/m*3 14.4 C 0 km/h
159 03-06-2011 07:39:02 14.9 C 6.37 g/m*3 14.9 C 0 km/h
160 03-06-2011 07:51:02 15 C 6.41 g/m*3 15 C 0 km/h
161 03-06-2011 08:03:03 15.1 C 6.58 g/m*3 15.1 C 0 km/h
162 03-06-2011 08:15:02 15.6 C 6.52 g/m*3 15.6 C 0 km/h
163 03-06-2011 08:27:02 16.2 C 6.21 g/m*3 16.2 C 0 km/h
164 03-06-2011 08:39:03 17 C 5.79 g/m*3 17 C 0 km/h
165 03-06-2011 08:51:02 17.7 C 6.04 g/m*3 17.7 C 0 km/h
166 03-06-2011 09:03:02 18.3 C 6.1 g/m*3 18.3 C 0 km/h
167 03-06-2011 09:15:02 18.6 C 5.89 g/m*3 18.6 C 0 km/h
168 03-06-2011 09:27:02 18.9 C 5.99 g/m*3 18.9 C 0 km/h
169 03-06-2011 09:39:02 19.5 C 5.87 g/m*3 19.5 C 0 km/h
170 03-06-2011 09:51:02 20.1 C 5.74 g/m*3 20.1 C 0 km/h
171 03-06-2011 10:03:03 20.7 C 5.94 g/m*3 20.7 C 0 km/h
172 03-06-2011 10:15:02 20.8 C 5.79 g/m*3 20.8 C 0 km/h
173 03-06-2011 10:27:02 21 C 5.86 g/m*3 21 C 0 km/h
174 03-06-2011 10:39:02 21 C 5.68 g/m*3 21 C 0 km/h
175 03-06-2011 10:51:01 21.9 C 5.79 g/m*3 21.9 C 0 km/h
Sensor: Nr:Datum:Temp:Abs-Feuchte:Windchill:Wind:
Aussen-T/F 176 03-06-2011 11:03:02 22.1 C 5.47 g/m*3 22.1 C 0 km/h
177 03-06-2011 11:15:02 21.9 C 5.79 g/m*3 21.9 C 0 km/h
178 03-06-2011 11:27:03 22.1 C 6.05 g/m*3 22.1 C 0 km/h
179 03-06-2011 11:39:01 22.9 C 5.72 g/m*3 22.9 C 0 km/h
180 03-06-2011 11:51:01 23 C 5.55 g/m*3 23 C 0 km/h
181 03-06-2011 12:03:02 23 C 5.34 g/m*3 23 C 0 km/h
182 03-06-2011 12:15:01 23.2 C 5.2 g/m*3 23.2 C 0 km/h
183 03-06-2011 12:27:01 23.7 C 5.78 g/m*3 23.7 C 0 km/h
184 03-06-2011 12:39:02 24.8 C 5.69 g/m*3 24.8 C 0 km/h
185 03-06-2011 12:51:02 25.1 C 5.79 g/m*3 25.1 C 0 km/h
186 03-06-2011 13:03:02 25.4 C 5.41 g/m*3 25.4 C 0 km/h
187 03-06-2011 13:15:02 26.1 C 5.39 g/m*3 26.1 C 0 km/h
188 03-06-2011 13:27:02 25.5 C 5.45 g/m*3 25.5 C 0 km/h
189 03-06-2011 13:39:02 26.3 C 5.69 g/m*3 26.3 C 0 km/h
190 03-06-2011 13:51:02 28.9 C 5.71 g/m*3 28.9 C 0 km/h
191 03-06-2011 14:03:02 27.5 C 5.82 g/m*3 27.5 C 0 km/h
192 03-06-2011 14:15:02 29.4 C 5.87 g/m*3 29.4 C 0 km/h
193 03-06-2011 14:27:02 29.6 C 5.94 g/m*3 29.6 C 0 km/h
194 03-06-2011 14:39:02 25.5 C 5.68 g/m*3 25.5 C 0 km/h
195 03-06-2011 14:51:02 25.4 C 6.12 g/m*3 25.4 C 0 km/h
196 03-06-2011 15:03:02 28.5 C 6.15 g/m*3 28.5 C 0 km/h
197 03-06-2011 15:15:03 30.2 C 6.13 g/m*3 30.2 C 0 km/h
198 03-06-2011 15:27:03 31 C 6.4 g/m*3 31 C 0 km/h
199 03-06-2011 15:39:02 31.5 C 6.57 g/m*3 31.5 C 0 km/h
200 03-06-2011 15:51:02 31.4 C 6.54 g/m*3 31.4 C 0 km/h
Sensor: Nr:Datum:Temp:Abs-Feuchte:Windchill:Wind:
Aussen-T/F 201 03-06-2011 16:03:01 30 C 6.06 g/m*3 30 C 0 km/h
202 03-06-2011 16:15:02 31.1 C 6.43 g/m*3 31.1 C 0 km/h
203 03-06-2011 16:27:02 31.4 C 6.54 g/m*3 31.4 C 0 km/h
204 03-06-2011 16:39:02 31.9 C 6.72 g/m*3 31.9 C 0 km/h
205 03-06-2011 16:51:02 30.9 C 6.37 g/m*3 30.9 C 0 km/h
206 03-06-2011 17:03:03 31.6 C 6.61 g/m*3 31.6 C 0 km/h
207 03-06-2011 17:15:02 31.2 C 6.47 g/m*3 31.2 C 0 km/h
208 03-06-2011 17:27:02 31.5 C 6.57 g/m*3 31.5 C 0 km/h
209 03-06-2011 17:39:02 31.6 C 6.61 g/m*3 31.6 C 0 km/h
210 03-06-2011 17:51:02 31.4 C 6.54 g/m*3 31.4 C 0 km/h
211 03-06-2011 18:03:02 30.5 C 6.23 g/m*3 30.5 C 0 km/h
212 03-06-2011 18:15:01 30.8 C 6.33 g/m*3 30.8 C 0 km/h
213 03-06-2011 18:27:01 29.4 C 5.87 g/m*3 29.4 C 0 km/h
214 03-06-2011 18:39:02 30 C 6.06 g/m*3 30 C 0 km/h
215 03-06-2011 18:51:01 30.6 C 6.26 g/m*3 30.6 C 0 km/h
216 03-06-2011 19:03:02 30.4 C 6.2 g/m*3 30.4 C 0 km/h
217 03-06-2011 19:15:01 29.4 C 5.87 g/m*3 29.4 C 0 km/h
218 03-06-2011 19:27:01 29.8 C 6.3 g/m*3 29.8 C 0 km/h
219 03-06-2011 19:39:02 27.4 C 6.31 g/m*3 27.4 C 0 km/h
220 03-06-2011 19:51:01 26.3 C 6.44 g/m*3 26.3 C 0 km/h
221 03-06-2011 20:03:02 25.3 C 6.79 g/m*3 25.3 C 0 km/h
222 03-06-2011 20:15:02 25.2 C 6.75 g/m*3 25.2 C 0 km/h
223 03-06-2011 20:27:02 24.6 C 7.88 g/m*3 24.6 C 0 km/h
224 03-06-2011 20:39:02 24 C 7.4 g/m*3 24 C 0 km/h
225 03-06-2011 20:51:02 23.7 C 7.49 g/m*3 23.7 C 0 km/h
Sensor: Nr:Datum:Temp:Abs-Feuchte:Windchill:Wind:
Aussen-T/F 226 03-06-2011 21:03:02 22.9 C 7.77 g/m*3 22.9 C 0 km/h
227 03-06-2011 21:15:02 22.3 C 7.31 g/m*3 22.3 C 0 km/h
228 03-06-2011 21:27:02 21.4 C 7.87 g/m*3 21.4 C 0 km/h
229 03-06-2011 21:39:03 20.8 C 7.97 g/m*3 20.8 C 0 km/h
230 03-06-2011 21:51:02 20.3 C 7.91 g/m*3 20.3 C 0 km/h
231 03-06-2011 22:03:02 20.7 C 7.74 g/m*3 20.7 C 0 km/h
232 03-06-2011 22:15:02 19.9 C 8.08 g/m*3 19.9 C 0 km/h
233 03-06-2011 22:27:03 20 C 8.12 g/m*3 20 C 0 km/h
234 03-06-2011 22:39:02 19.8 C 8.03 g/m*3 19.8 C 0 km/h
235 03-06-2011 22:52:06 19.6 C 7.93 g/m*3 19.6 C 0 km/h
236 03-06-2011 23:04:06 19.5 C 8.22 g/m*3 19.5 C 0 km/h
237 03-06-2011 23:16:06 19 C 8.15 g/m*3 19 C 0 km/h
238 03-06-2011 23:28:06 18.4 C 8.49 g/m*3 18.4 C 0 km/h
239 03-06-2011 23:40:06 18 C 8.45 g/m*3 18 C 0 km/h
240 03-06-2011 23:52:06 17.9 C 8.55 g/m*3 17.9 C 0 km/h
241 04-06-2011 00:04:06 17.7 C 8.45 g/m*3 17.7 C 0 km/h
242 04-06-2011 00:16:06 17.3 C 8.4 g/m*3 17.3 C 0 km/h
243 04-06-2011 00:28:06 17.4 C 8.6 g/m*3 17.4 C 0 km/h
244 04-06-2011 00:40:06 17.4 C 8.45 g/m*3 17.4 C 0 km/h
245 04-06-2011 00:52:06 17.4 C 8.74 g/m*3 17.4 C 0 km/h
246 04-06-2011 01:04:06 17 C 8.39 g/m*3 17 C 0 km/h
247 04-06-2011 01:16:06 17.1 C 8.73 g/m*3 17.1 C 0 km/h
248 04-06-2011 01:28:06 17.1 C 8.59 g/m*3 17.1 C 0 km/h
249 04-06-2011 01:40:06 16.8 C 8.58 g/m*3 16.8 C 0 km/h
250 04-06-2011 01:52:07 16.8 C 8.58 g/m*3 16.8 C 0 km/h
Sensor: Nr:Datum:Temp:Abs-Feuchte:Windchill:Wind:
Aussen-T/F 251 04-06-2011 02:04:07 16.4 C 8.37 g/m*3 16.4 C 0 km/h
252 04-06-2011 02:16:07 16.3 C 8.46 g/m*3 16.3 C 0 km/h
253 04-06-2011 02:28:07 16 C 8.58 g/m*3 16 C 0 km/h
254 04-06-2011 02:40:07 16 C 8.45 g/m*3 16 C 0 km/h
255 04-06-2011 02:52:07 15.9 C 8.53 g/m*3 15.9 C 0 km/h
256 04-06-2011 03:04:07 15.8 C 8.48 g/m*3 15.8 C 0 km/h
257 04-06-2011 03:16:07 15.8 C 8.62 g/m*3 15.8 C 0 km/h
258 04-06-2011 03:28:07 15.6 C 8.51 g/m*3 15.6 C 0 km/h
259 04-06-2011 03:40:07 15.6 C 8.51 g/m*3 15.6 C 0 km/h
260 04-06-2011 03:52:07 15.4 C 8.41 g/m*3 15.4 C 0 km/h
261 04-06-2011 04:04:07 15.3 C 8.36 g/m*3 15.3 C 0 km/h
262 04-06-2011 04:16:07 15.2 C 8.31 g/m*3 15.2 C 0 km/h
263 04-06-2011 04:28:07 15 C 8.33 g/m*3 15 C 0 km/h
264 04-06-2011 04:40:07 14.9 C 8.54 g/m*3 14.9 C 0 km/h
265 04-06-2011 04:52:07 15 C 8.33 g/m*3 15 C 0 km/h
266 04-06-2011 05:04:07 14.9 C 8.41 g/m*3 14.9 C 0 km/h
267 04-06-2011 05:16:07 14.7 C 8.31 g/m*3 14.7 C 0 km/h
268 04-06-2011 05:28:07 14.8 C 8.49 g/m*3 14.8 C 0 km/h
269 04-06-2011 05:40:07 15 C 8.33 g/m*3 15 C 0 km/h
270 04-06-2011 05:52:08 14.8 C 8.36 g/m*3 14.8 C 0 km/h
271 04-06-2011 06:04:08 15 C 8.46 g/m*3 15 C 0 km/h
272 04-06-2011 06:16:08 15 C 8.59 g/m*3 15 C 0 km/h
273 04-06-2011 06:28:08 15.2 C 8.7 g/m*3 15.2 C 0 km/h
274 04-06-2011 06:40:08 15.7 C 8.83 g/m*3 15.7 C 0 km/h
275 04-06-2011 06:52:08 16 C 8.86 g/m*3 16 C 0 km/h
Sensor: Nr:Datum:Temp:Abs-Feuchte:Windchill:Wind:
Aussen-T/F 276 04-06-2011 07:04:08 16.7 C 9.1 g/m*3 16.7 C 0 km/h
277 04-06-2011 07:16:08 17.4 C 9.04 g/m*3 17.4 C 0 km/h
278 04-06-2011 07:28:08 18.1 C 9.12 g/m*3 18.1 C 0 km/h
279 04-06-2011 07:40:08 18.6 C 9.39 g/m*3 18.6 C 0 km/h
280 04-06-2011 07:52:08 18.6 C 9.39 g/m*3 18.6 C 0 km/h
281 04-06-2011 08:04:08 18.5 C 9.18 g/m*3 18.5 C 0 km/h
282 04-06-2011 08:16:08 18.4 C 9.28 g/m*3 18.4 C 0 km/h
283 04-06-2011 08:28:08 18.3 C 9.54 g/m*3 18.3 C 0 km/h
284 04-06-2011 08:40:08 19 C 9.45 g/m*3 19 C 0 km/h
285 04-06-2011 08:52:02 20 C 9.51 g/m*3 20 C 0 km/h
286 04-06-2011 09:04:02 20.3 C 9.67 g/m*3 20.3 C 0 km/h
287 04-06-2011 09:16:02 20.8 C 9.96 g/m*3 20.8 C 0 km/h
288 04-06-2011 09:28:02 21.9 C 9.26 g/m*3 21.9 C 0 km/h
289 04-06-2011 09:40:02 22.6 C 9.24 g/m*3 22.6 C 0 km/h
290 04-06-2011 09:52:02 22.6 C 8.84 g/m*3 22.6 C 0 km/h
291 04-06-2011 10:04:02 22.9 C 9.4 g/m*3 22.9 C 0 km/h
292 04-06-2011 10:16:01 23.5 C 8.88 g/m*3 23.5 C 0 km/h
293 04-06-2011 10:28:01 24 C 8.49 g/m*3 24 C 0 km/h
294 04-06-2011 10:40:02 24 C 9.14 g/m*3 24 C 0 km/h
295 04-06-2011 10:52:03 24.4 C 8.23 g/m*3 24.4 C 0 km/h
296 04-06-2011 11:04:02 25 C 8.75 g/m*3 25 C 0 km/h
297 04-06-2011 11:16:02 25.3 C 8.43 g/m*3 25.3 C 0 km/h
298 04-06-2011 11:28:02 25.8 C 8.67 g/m*3 25.8 C 0 km/h
299 04-06-2011 11:40:03 26.2 C 8.37 g/m*3 26.2 C 0 km/h
300 04-06-2011 11:52:02 27 C 7.98 g/m*3 27 C 0 km/h
Sensor: Nr:Datum:Temp:Abs-Feuchte:Windchill:Wind:
Aussen-T/F 301 04-06-2011 12:04:02 27.4 C 7.89 g/m*3 27.4 C 0 km/h
302 04-06-2011 12:16:02 27.3 C 7.85 g/m*3 27.3 C 0 km/h
303 04-06-2011 12:28:02 27.3 C 7.85 g/m*3 27.3 C 0 km/h
304 04-06-2011 12:40:02 27.4 C 8.16 g/m*3 27.4 C 0 km/h
305 04-06-2011 12:52:02 27.8 C 8.07 g/m*3 27.8 C 0 km/h
306 04-06-2011 13:04:02 28.1 C 7.66 g/m*3 28.1 C 0 km/h
307 04-06-2011 13:16:02 28.7 C 7.91 g/m*3 28.7 C 0 km/h
308 04-06-2011 13:28:02 31.3 C 7.15 g/m*3 31.3 C 0 km/h
309 04-06-2011 13:40:02 32 C 6.75 g/m*3 32 C 0 km/h
310 04-06-2011 13:52:02 32.9 C 7.08 g/m*3 32.9 C 0 km/h
311 04-06-2011 14:04:02 33.2 C 7.2 g/m*3 33.2 C 0 km/h
312 04-06-2011 14:16:02 31.8 C 6.68 g/m*3 31.8 C 0 km/h
313 04-06-2011 14:28:02 33.2 C 7.2 g/m*3 33.2 C 0 km/h
314 04-06-2011 14:40:02 33 C 7.12 g/m*3 33 C 0 km/h
315 04-06-2011 14:52:02 32.3 C 6.86 g/m*3 32.3 C 0 km/h
316 04-06-2011 15:04:02 31.2 C 7.12 g/m*3 31.2 C 0 km/h
317 04-06-2011 15:16:02 32.6 C 6.97 g/m*3 32.6 C 0 km/h
318 04-06-2011 15:28:03 30.6 C 7.2 g/m*3 30.6 C 0 km/h
319 04-06-2011 15:40:01 30.4 C 8.06 g/m*3 30.4 C 0 km/h
320 04-06-2011 15:52:02 30.1 C 7.93 g/m*3 30.1 C 0 km/h
321 04-06-2011 16:04:01 30.2 C 7.97 g/m*3 30.2 C 0 km/h
322 04-06-2011 16:16:02 30.4 C 7.75 g/m*3 30.4 C 0 km/h
323 04-06-2011 16:28:02 26.5 C 7.01 g/m*3 26.5 C 0 km/h
324 04-06-2011 16:40:01 21.6 C 12.14 g/m*3 21.6 C 0 km/h
325 04-06-2011 16:52:02 20.7 C 13.14 g/m*3 20.7 C 0 km/h
Sensor: Nr:Datum:Temp:Abs-Feuchte:Windchill:Wind:
Aussen-T/F 326 04-06-2011 17:04:02 20.8 C 13.4 g/m*3 20.8 C 0 km/h
327 04-06-2011 17:16:02 23.6 C 14.25 g/m*3 23.6 C 0 km/h
328 04-06-2011 17:28:02 24.8 C 13.88 g/m*3 24.8 C 0 km/h
329 04-06-2011 17:40:02 24.6 C 13.73 g/m*3 24.6 C 0 km/h
330 04-06-2011 17:52:02 23.1 C 13.23 g/m*3 23.1 C 0 km/h
331 04-06-2011 18:04:02 22.6 C 13.86 g/m*3 22.6 C 0 km/h
332 04-06-2011 18:16:02 22.1 C 13.66 g/m*3 22.1 C 0 km/h
333 04-06-2011 18:28:02 21.4 C 13.5 g/m*3 21.4 C 0 km/h
334 04-06-2011 18:40:01 20.4 C 13.09 g/m*3 20.4 C 0 km/h
335 04-06-2011 18:52:02 20.1 C 13.04 g/m*3 20.1 C 0 km/h
336 04-06-2011 19:04:01 20.3 C 13.37 g/m*3 20.3 C 0 km/h
337 04-06-2011 19:16:01 20.9 C 13.48 g/m*3 20.9 C 0 km/h
338 04-06-2011 19:28:01 20.9 C 13.11 g/m*3 20.9 C 0 km/h
339 04-06-2011 19:40:02 20.6 C 12.89 g/m*3 20.6 C 0 km/h
340 04-06-2011 19:52:02 20.4 C 12.56 g/m*3 20.4 C 0 km/h
341 04-06-2011 20:04:02 20.5 C 12.46 g/m*3 20.5 C 0 km/h
342 04-06-2011 20:16:02 20.5 C 12.28 g/m*3 20.5 C 0 km/h
343 04-06-2011 20:28:02 20.4 C 12.38 g/m*3 20.4 C 0 km/h
344 04-06-2011 20:40:02 20.4 C 12.38 g/m*3 20.4 C 0 km/h
345 04-06-2011 20:52:02 20.3 C 12.49 g/m*3 20.3 C 0 km/h
346 04-06-2011 21:04:02 20 C 12.27 g/m*3 20 C 0 km/h
347 04-06-2011 21:16:02 19.5 C 12.75 g/m*3 19.5 C 0 km/h
348 04-06-2011 21:28:02 19.4 C 12.68 g/m*3 19.4 C 0 km/h
349 04-06-2011 21:40:02 19.6 C 12.32 g/m*3 19.6 C 0 km/h
350 04-06-2011 21:52:01 19.4 C 12.35 g/m*3 19.4 C 0 km/h
Sensor: Nr:Datum:Temp:Abs-Feuchte:Windchill:Wind:
Aussen-T/F 351 04-06-2011 22:04:01 19.4 C 12.01 g/m*3 19.4 C 0 km/h
352 04-06-2011 22:17:02 18.8 C 12.88 g/m*3 18.8 C 0 km/h
353 04-06-2011 22:29:02 18.4 C 12.9 g/m*3 18.4 C 0 km/h
354 04-06-2011 22:41:02 18.1 C 12.82 g/m*3 18.1 C 0 km/h
355 04-06-2011 22:53:03 18.1 C 12.98 g/m*3 18.1 C 0 km/h
356 04-06-2011 23:05:03 18 C 13.06 g/m*3 18 C 0 km/h
357 04-06-2011 23:17:03 18.1 C 13.13 g/m*3 18.1 C 0 km/h
358 04-06-2011 23:29:03 18 C 13.21 g/m*3 18 C 0 km/h
359 04-06-2011 23:41:03 17.9 C 13.28 g/m*3 17.9 C 0 km/h
360 04-06-2011 23:53:03 17.9 C 13.44 g/m*3 17.9 C 0 km/h
361 05-06-2011 00:05:03 17.9 C 13.44 g/m*3 17.9 C 0 km/h
362 05-06-2011 00:17:03 17.9 C 13.44 g/m*3 17.9 C 0 km/h
363 05-06-2011 00:29:03 17.7 C 13.28 g/m*3 17.7 C 0 km/h
364 05-06-2011 00:41:03 17.8 C 13.36 g/m*3 17.8 C 0 km/h
365 05-06-2011 00:53:03 17.7 C 13.28 g/m*3 17.7 C 0 km/h
366 05-06-2011 01:05:03 17.6 C 13.2 g/m*3 17.6 C 0 km/h
367 05-06-2011 01:17:03 17.4 C 13.04 g/m*3 17.4 C 0 km/h
368 05-06-2011 01:29:03 17.5 C 13.12 g/m*3 17.5 C 0 km/h
369 05-06-2011 01:41:03 17.2 C 12.89 g/m*3 17.2 C 0 km/h
370 05-06-2011 01:53:03 17 C 12.73 g/m*3 17 C 0 km/h
371 05-06-2011 02:05:03 16.9 C 12.8 g/m*3 16.9 C 0 km/h
372 05-06-2011 02:17:03 16.7 C 12.65 g/m*3 16.7 C 0 km/h
373 05-06-2011 02:29:03 16.5 C 12.5 g/m*3 16.5 C 0 km/h
374 05-06-2011 02:41:03 16.3 C 12.35 g/m*3 16.3 C 0 km/h
375 05-06-2011 02:53:04 16.4 C 12.42 g/m*3 16.4 C 0 km/h
Sensor: Nr:Datum:Temp:Abs-Feuchte:Windchill:Wind:
Aussen-T/F 376 05-06-2011 03:05:04 16.1 C 12.2 g/m*3 16.1 C 0 km/h
377 05-06-2011 03:17:04 16 C 12.13 g/m*3 16 C 0 km/h
378 05-06-2011 03:29:04 15.7 C 11.91 g/m*3 15.7 C 0 km/h
379 05-06-2011 03:41:04 15.7 C 11.91 g/m*3 15.7 C 0 km/h
380 05-06-2011 03:53:04 15.4 C 11.69 g/m*3 15.4 C 0 km/h
381 05-06-2011 04:05:04 15.5 C 11.76 g/m*3 15.5 C 0 km/h
382 05-06-2011 04:17:04 15.5 C 11.76 g/m*3 15.5 C 0 km/h
383 05-06-2011 04:29:04 15.7 C 11.91 g/m*3 15.7 C 0 km/h
384 05-06-2011 04:41:04 15.1 C 11.48 g/m*3 15.1 C 0 km/h
385 05-06-2011 04:53:04 15.1 C 11.48 g/m*3 15.1 C 0 km/h
386 05-06-2011 05:05:04 15.2 C 11.55 g/m*3 15.2 C 0 km/h
387 05-06-2011 05:17:04 15.3 C 11.75 g/m*3 15.3 C 0 km/h
388 05-06-2011 05:29:04 15 C 11.54 g/m*3 15 C 0 km/h
389 05-06-2011 05:41:04 15.2 C 11.68 g/m*3 15.2 C 0 km/h
390 05-06-2011 05:53:04 15.6 C 11.97 g/m*3 15.6 C 0 km/h
391 05-06-2011 06:05:04 15.8 C 12.11 g/m*3 15.8 C 0 km/h
392 05-06-2011 06:17:04 16.1 C 12.2 g/m*3 16.1 C 0 km/h
393 05-06-2011 06:29:04 16.2 C 12.41 g/m*3 16.2 C 0 km/h
394 05-06-2011 06:41:04 16.4 C 12.56 g/m*3 16.4 C 0 km/h
395 05-06-2011 06:53:04 16.3 C 12.49 g/m*3 16.3 C 0 km/h
396 05-06-2011 07:05:05 16.3 C 12.49 g/m*3 16.3 C 0 km/h
397 05-06-2011 07:17:05 16.4 C 12.56 g/m*3 16.4 C 0 km/h
398 05-06-2011 07:29:05 16.5 C 12.5 g/m*3 16.5 C 0 km/h
399 05-06-2011 07:41:05 16.7 C 12.79 g/m*3 16.7 C 0 km/h
400 05-06-2011 07:53:05 17.4 C 13.19 g/m*3 17.4 C 0 km/h
Sensor: Nr:Datum:Temp:Abs-Feuchte:Windchill:Wind:
Aussen-T/F 401 05-06-2011 08:05:02 17.9 C 13.59 g/m*3 17.9 C 0 km/h
402 05-06-2011 08:17:02 18 C 13.52 g/m*3 18 C 0 km/h
403 05-06-2011 08:29:02 18.4 C 13.68 g/m*3 18.4 C 0 km/h
404 05-06-2011 08:41:02 18.5 C 13.61 g/m*3 18.5 C 0 km/h
405 05-06-2011 08:53:02 18.7 C 13.45 g/m*3 18.7 C 0 km/h
406 05-06-2011 09:05:01 18.6 C 12.73 g/m*3 18.6 C 0 km/h
407 05-06-2011 09:17:02 19.5 C 12.59 g/m*3 19.5 C 0 km/h
408 05-06-2011 09:29:02 19.9 C 12.54 g/m*3 19.9 C 0 km/h
409 05-06-2011 09:41:02 19.5 C 12.25 g/m*3 19.5 C 0 km/h
410 05-06-2011 09:53:01 19.5 C 12.42 g/m*3 19.5 C 0 km/h
411 05-06-2011 10:05:02 19.9 C 13.4 g/m*3 19.9 C 0 km/h
412 05-06-2011 10:17:02 20.2 C 13.46 g/m*3 20.2 C 0 km/h
413 05-06-2011 10:29:02 20.6 C 13.42 g/m*3 20.6 C 0 km/h
414 05-06-2011 10:41:01 21.8 C 14.01 g/m*3 21.8 C 0 km/h
415 05-06-2011 10:53:02 21.7 C 12.97 g/m*3 21.7 C 0 km/h
416 05-06-2011 11:05:01 21.7 C 12.97 g/m*3 21.7 C 0 km/h
417 05-06-2011 11:17:01 21.7 C 12.59 g/m*3 21.7 C 0 km/h
418 05-06-2011 11:29:02 22.2 C 12.96 g/m*3 22.2 C 0 km/h
419 05-06-2011 11:41:01 22.4 C 13.31 g/m*3 22.4 C 0 km/h
420 05-06-2011 11:53:02 23.2 C 13.1 g/m*3 23.2 C 0 km/h
421 05-06-2011 12:05:02 23.7 C 12.62 g/m*3 23.7 C 0 km/h
422 05-06-2011 12:17:02 24.1 C 12.25 g/m*3 24.1 C 0 km/h
423 05-06-2011 12:29:02 23.7 C 13.9 g/m*3 23.7 C 0 km/h
424 05-06-2011 12:41:02 24.4 C 14.02 g/m*3 24.4 C 0 km/h
425 05-06-2011 12:53:01 24.8 C 13.2 g/m*3 24.8 C 0 km/h
Sensor: Nr:Datum:Temp:Abs-Feuchte:Windchill:Wind:
Aussen-T/F 426 05-06-2011 13:05:02 25.3 C 14.05 g/m*3 25.3 C 0 km/h
427 05-06-2011 13:17:01 24.9 C 13.73 g/m*3 24.9 C 0 km/h
428 05-06-2011 13:29:01 24.8 C 13.88 g/m*3 24.8 C 0 km/h
429 05-06-2011 13:41:02 25 C 13.81 g/m*3 25 C 0 km/h
430 05-06-2011 13:53:02 25.6 C 15 g/m*3 25.6 C 0 km/h
431 05-06-2011 14:05:02 25.3 C 14.05 g/m*3 25.3 C 0 km/h
432 05-06-2011 14:17:01 24.7 C 15.16 g/m*3 24.7 C 0 km/h
433 05-06-2011 14:29:01 24.4 C 15.58 g/m*3 24.4 C 0 km/h
434 05-06-2011 14:41:02 27.5 C 14.55 g/m*3 27.5 C 0 km/h
435 05-06-2011 14:53:02 28.1 C 11.76 g/m*3 28.1 C 0 km/h
436 05-06-2011 15:05:02 27.7 C 13.91 g/m*3 27.7 C 0 km/h
437 05-06-2011 15:17:01 25.3 C 12.88 g/m*3 25.3 C 0 km/h
438 05-06-2011 15:29:01 23.7 C 14.33 g/m*3 23.7 C 0 km/h
439 05-06-2011 15:41:16 21.9 C 14.67 g/m*3 21.9 C 0 km/h
440 05-06-2011 15:53:16 21.1 C 14.56 g/m*3 21.1 C 0 km/h
441 05-06-2011 16:05:16 19.5 C 13.43 g/m*3 19.5 C 0 km/h
442 05-06-2011 16:17:16 17.4 C 12 g/m*3 17.4 C 0 km/h
443 05-06-2011 16:29:16 17.3 C 12.23 g/m*3 17.3 C 0 km/h
444 05-06-2011 16:41:16 17.6 C 12.6 g/m*3 17.6 C 0 km/h
445 05-06-2011 16:53:16 17.3 C 12.37 g/m*3 17.3 C 0 km/h
446 05-06-2011 17:05:02 17.4 C 12.6 g/m*3 17.4 C 0 km/h
447 05-06-2011 17:17:02 17.5 C 12.82 g/m*3 17.5 C 0 km/h
448 05-06-2011 17:29:02 17.7 C 12.98 g/m*3 17.7 C 0 km/h
449 05-06-2011 17:41:02 17.2 C 12.59 g/m*3 17.2 C 0 km/h
450 05-06-2011 17:53:02 17.2 C 12.59 g/m*3 17.2 C 0 km/h
Sensor: Nr:Datum:Temp:Abs-Feuchte:Windchill:Wind:
Aussen-T/F 451 05-06-2011 18:05:01 17.2 C 12.59 g/m*3 17.2 C 0 km/h
452 05-06-2011 18:17:02 16.9 C 12.51 g/m*3 16.9 C 0 km/h
453 05-06-2011 18:29:02 16.9 C 12.51 g/m*3 16.9 C 0 km/h
454 05-06-2011 18:41:02 16.8 C 12.44 g/m*3 16.8 C 0 km/h
455 05-06-2011 18:53:02 16.8 C 12.58 g/m*3 16.8 C 0 km/h
456 05-06-2011 19:05:03 17 C 12.59 g/m*3 17 C 0 km/h
457 05-06-2011 19:17:02 17.2 C 12.74 g/m*3 17.2 C 0 km/h
458 05-06-2011 19:29:02 17.4 C 13.04 g/m*3 17.4 C 0 km/h
459 05-06-2011 19:41:02 17.7 C 13.28 g/m*3 17.7 C 0 km/h
460 05-06-2011 19:53:01 17.8 C 13.36 g/m*3 17.8 C 0 km/h
461 05-06-2011 20:05:02 17.8 C 13.2 g/m*3 17.8 C 0 km/h
462 05-06-2011 20:17:01 17.8 C 13.2 g/m*3 17.8 C 0 km/h
463 05-06-2011 20:29:01 17.6 C 13.05 g/m*3 17.6 C 0 km/h
464 05-06-2011 20:41:02 17.3 C 12.82 g/m*3 17.3 C 0 km/h
465 05-06-2011 20:53:01 17.3 C 12.82 g/m*3 17.3 C 0 km/h
466 05-06-2011 21:05:02 17.2 C 12.74 g/m*3 17.2 C 0 km/h
467 05-06-2011 21:17:01 17 C 12.59 g/m*3 17 C 0 km/h
468 05-06-2011 21:29:01 16.8 C 12.58 g/m*3 16.8 C 0 km/h
469 05-06-2011 21:41:02 16.7 C 12.51 g/m*3 16.7 C 0 km/h
470 05-06-2011 21:53:01 16.7 C 12.65 g/m*3 16.7 C 0 km/h
471 05-06-2011 22:05:01 16.7 C 12.65 g/m*3 16.7 C 0 km/h
472 05-06-2011 22:17:02 16.8 C 12.72 g/m*3 16.8 C 0 km/h
473 05-06-2011 22:29:02 16.8 C 12.72 g/m*3 16.8 C 0 km/h
474 05-06-2011 22:41:01 16.4 C 12.42 g/m*3 16.4 C 0 km/h
475 05-06-2011 22:53:03 16.2 C 12.27 g/m*3 16.2 C 0 km/h
Sensor: Nr:Datum:Temp:Abs-Feuchte:Windchill:Wind:
Aussen-T/F 476 05-06-2011 23:06:05 16.1 C 12.2 g/m*3 16.1 C 0 km/h
477 05-06-2011 23:18:05 16 C 12.13 g/m*3 16 C 0 km/h
478 05-06-2011 23:30:05 15.9 C 12.05 g/m*3 15.9 C 0 km/h
479 05-06-2011 23:42:05 15.5 C 11.76 g/m*3 15.5 C 0 km/h
480 05-06-2011 23:54:05 15 C 11.41 g/m*3 15 C 0 km/h
481 06-06-2011 00:06:05 15.3 C 11.62 g/m*3 15.3 C 0 km/h
482 06-06-2011 00:18:05 15.3 C 11.75 g/m*3 15.3 C 0 km/h
483 06-06-2011 00:30:06 14.9 C 11.47 g/m*3 14.9 C 0 km/h
484 06-06-2011 00:42:06 15 C 11.41 g/m*3 15 C 0 km/h
485 06-06-2011 00:54:06 15 C 11.54 g/m*3 15 C 0 km/h
486 06-06-2011 01:06:06 15.1 C 11.61 g/m*3 15.1 C 0 km/h
487 06-06-2011 01:18:06 15.1 C 11.61 g/m*3 15.1 C 0 km/h
488 06-06-2011 01:30:06 14.9 C 11.6 g/m*3 14.9 C 0 km/h
489 06-06-2011 01:42:06 15 C 11.54 g/m*3 15 C 0 km/h
490 06-06-2011 01:54:06 15 C 11.54 g/m*3 15 C 0 km/h
491 06-06-2011 02:06:06 15.1 C 11.61 g/m*3 15.1 C 0 km/h
492 06-06-2011 02:18:06 15.1 C 11.61 g/m*3 15.1 C 0 km/h
493 06-06-2011 02:30:06 15.1 C 11.61 g/m*3 15.1 C 0 km/h
494 06-06-2011 02:42:06 15 C 11.54 g/m*3 15 C 0 km/h
495 06-06-2011 02:54:06 15 C 11.54 g/m*3 15 C 0 km/h
496 06-06-2011 03:06:06 15.1 C 11.61 g/m*3 15.1 C 0 km/h
497 06-06-2011 03:18:06 14.9 C 11.6 g/m*3 14.9 C 0 km/h
498 06-06-2011 03:30:06 15 C 11.54 g/m*3 15 C 0 km/h
499 06-06-2011 03:42:06 14.5 C 11.32 g/m*3 14.5 C 0 km/h
500 06-06-2011 03:54:06 14.4 C 11.25 g/m*3 14.4 C 0 km/h
Sensor: Nr:Datum:Temp:Abs-Feuchte:Windchill:Wind:
Aussen-T/F 501 06-06-2011 04:06:06 14.4 C 11.25 g/m*3 14.4 C 0 km/h
502 06-06-2011 04:18:06 13.8 C 10.84 g/m*3 13.8 C 0 km/h
503 06-06-2011 04:30:06 14 C 10.98 g/m*3 14 C 0 km/h
504 06-06-2011 04:42:07 14 C 10.98 g/m*3 14 C 0 km/h
505 06-06-2011 04:54:07 13.7 C 10.78 g/m*3 13.7 C 0 km/h
506 06-06-2011 05:06:07 14 C 10.98 g/m*3 14 C 0 km/h
507 06-06-2011 05:18:07 13.6 C 10.71 g/m*3 13.6 C 0 km/h
508 06-06-2011 05:30:07 13.6 C 10.71 g/m*3 13.6 C 0 km/h
509 06-06-2011 05:42:07 13.5 C 10.64 g/m*3 13.5 C 0 km/h
510 06-06-2011 05:54:07 13.7 C 10.78 g/m*3 13.7 C 0 km/h
511 06-06-2011 06:06:07 13.7 C 10.78 g/m*3 13.7 C 0 km/h
512 06-06-2011 06:18:07 14 C 10.98 g/m*3 14 C 0 km/h
513 06-06-2011 06:30:07 14.2 C 11.11 g/m*3 14.2 C 0 km/h
514 06-06-2011 06:42:07 14.4 C 11.25 g/m*3 14.4 C 0 km/h
515 06-06-2011 06:54:07 14.8 C 11.53 g/m*3 14.8 C 0 km/h
516 06-06-2011 07:06:07 14.9 C 11.6 g/m*3 14.9 C 0 km/h
517 06-06-2011 07:18:04 15.2 C 11.68 g/m*3 15.2 C 0 km/h
518 06-06-2011 07:30:04 15.4 C 11.82 g/m*3 15.4 C 0 km/h
519 06-06-2011 07:42:04 15.5 C 11.9 g/m*3 15.5 C 0 km/h
520 06-06-2011 07:54:03 15.7 C 12.04 g/m*3 15.7 C 0 km/h
521 06-06-2011 08:06:02 16.1 C 12.34 g/m*3 16.1 C 0 km/h
522 06-06-2011 08:18:02 16.8 C 12.87 g/m*3 16.8 C 0 km/h
523 06-06-2011 08:30:02 17 C 12.88 g/m*3 17 C 0 km/h
524 06-06-2011 08:42:02 18.3 C 13.76 g/m*3 18.3 C 0 km/h
525 06-06-2011 08:54:02 18.1 C 13.44 g/m*3 18.1 C 0 km/h
Sensor: Nr:Datum:Temp:Abs-Feuchte:Windchill:Wind:
Aussen-T/F 526 06-06-2011 09:06:01 18.3 C 13.29 g/m*3 18.3 C 0 km/h
527 06-06-2011 09:18:02 18.1 C 12.82 g/m*3 18.1 C 0 km/h
528 06-06-2011 09:30:02 18.1 C 12.98 g/m*3 18.1 C 0 km/h
529 06-06-2011 09:42:02 18.3 C 12.98 g/m*3 18.3 C 0 km/h
530 06-06-2011 09:54:02 18.8 C 13.37 g/m*3 18.8 C 0 km/h
531 06-06-2011 10:06:02 19 C 13.53 g/m*3 19 C 0 km/h
532 06-06-2011 10:18:02 19.6 C 13.34 g/m*3 19.6 C 0 km/h
533 06-06-2011 10:30:02 20.7 C 13.14 g/m*3 20.7 C 0 km/h
534 06-06-2011 10:42:02 21.3 C 11.93 g/m*3 21.3 C 0 km/h
535 06-06-2011 10:54:02 21.4 C 12 g/m*3 21.4 C 0 km/h
536 06-06-2011 11:06:02 21.9 C 11.77 g/m*3 21.9 C 0 km/h
537 06-06-2011 11:18:02 22.9 C 10.83 g/m*3 22.9 C 0 km/h
538 06-06-2011 11:30:02 21.5 C 10.75 g/m*3 21.5 C 0 km/h
539 06-06-2011 11:42:02 22.3 C 10.86 g/m*3 22.3 C 0 km/h
540 06-06-2011 11:54:02 22.9 C 11.24 g/m*3 22.9 C 0 km/h
541 06-06-2011 12:06:02 23 C 11.1 g/m*3 23 C 0 km/h
542 06-06-2011 12:18:02 22.9 C 10.83 g/m*3 22.9 C 0 km/h
543 06-06-2011 12:30:02 23.5 C 10.79 g/m*3 23.5 C 0 km/h
544 06-06-2011 12:42:02 23.9 C 11.03 g/m*3 23.9 C 0 km/h
545 06-06-2011 12:54:02 24.2 C 10.78 g/m*3 24.2 C 0 km/h
546 06-06-2011 13:06:01 24.6 C 11.25 g/m*3 24.6 C 0 km/h
547 06-06-2011 13:18:02 24.6 C 10.35 g/m*3 24.6 C 0 km/h
548 06-06-2011 13:30:02 29.1 C 10.11 g/m*3 29.1 C 0 km/h
549 06-06-2011 13:42:01 27.8 C 9.95 g/m*3 27.8 C 0 km/h
550 06-06-2011 13:54:02 27 C 9.01 g/m*3 27 C 0 km/h
Sensor: Nr:Datum:Temp:Abs-Feuchte:Windchill:Wind:
Aussen-T/F 551 06-06-2011 14:06:01 28.3 C 9.68 g/m*3 28.3 C 0 km/h
552 06-06-2011 14:18:01 27.3 C 9.42 g/m*3 27.3 C 0 km/h
553 06-06-2011 14:30:01 26.7 C 9.37 g/m*3 26.7 C 0 km/h
554 06-06-2011 14:42:02 26.4 C 8.96 g/m*3 26.4 C 0 km/h
555 06-06-2011 14:54:02 26.5 C 10.01 g/m*3 26.5 C 0 km/h
556 06-06-2011 15:06:02 26.2 C 8.86 g/m*3 26.2 C 0 km/h
557 06-06-2011 15:18:01 25.8 C 9.87 g/m*3 25.8 C 0 km/h
558 06-06-2011 15:30:01 25.5 C 11.6 g/m*3 25.5 C 0 km/h
559 06-06-2011 15:42:02 27.2 C 10.15 g/m*3 27.2 C 0 km/h
560 06-06-2011 15:54:02 25.1 C 9.26 g/m*3 25.1 C 0 km/h
561 06-06-2011 16:06:02 24.8 C 10.24 g/m*3 24.8 C 0 km/h
562 06-06-2011 16:18:01 25.1 C 10.19 g/m*3 25.1 C 0 km/h
563 06-06-2011 16:30:01 26.1 C 10.28 g/m*3 26.1 C 0 km/h
564 06-06-2011 16:42:02 25.8 C 10.11 g/m*3 25.8 C 0 km/h
565 06-06-2011 16:54:02 23 C 8.63 g/m*3 23 C 0 km/h
566 06-06-2011 17:06:02 21.1 C 8.84 g/m*3 21.1 C 0 km/h
567 06-06-2011 17:18:01 18 C 9.83 g/m*3 18 C 0 km/h
568 06-06-2011 17:30:01 16.9 C 10.79 g/m*3 16.9 C 0 km/h
569 06-06-2011 17:42:02 16.4 C 10.89 g/m*3 16.4 C 0 km/h
570 06-06-2011 17:54:01 16.3 C 11.38 g/m*3 16.3 C 0 km/h
571 06-06-2011 18:06:02 16.4 C 11.72 g/m*3 16.4 C 0 km/h
572 06-06-2011 18:18:02 17 C 12.01 g/m*3 17 C 0 km/h
573 06-06-2011 18:30:02 16.8 C 12.01 g/m*3 16.8 C 0 km/h
574 06-06-2011 18:42:01 17.2 C 12.3 g/m*3 17.2 C 0 km/h
575 06-06-2011 18:54:02 17.2 C 12.3 g/m*3 17.2 C 0 km/h
Sensor: Nr:Datum:Temp:Abs-Feuchte:Windchill:Wind:
Aussen-T/F 576 06-06-2011 19:06:01 17.2 C 12.3 g/m*3 17.2 C 0 km/h
577 06-06-2011 19:18:02 17.5 C 12.67 g/m*3 17.5 C 0 km/h
578 06-06-2011 19:30:03 17.8 C 12.9 g/m*3 17.8 C 0 km/h
579 06-06-2011 19:42:01 18.1 C 12.82 g/m*3 18.1 C 0 km/h
580 06-06-2011 19:54:02 18.1 C 12.82 g/m*3 18.1 C 0 km/h
581 06-06-2011 20:06:02 18.1 C 12.67 g/m*3 18.1 C 0 km/h
582 06-06-2011 20:18:02 18.1 C 12.67 g/m*3 18.1 C 0 km/h
583 06-06-2011 20:30:02 18.1 C 12.67 g/m*3 18.1 C 0 km/h
584 06-06-2011 20:42:49 17.5 C 12.52 g/m*3 17.5 C 0 km/h
585 06-06-2011 20:54:49 17.2 C 12.45 g/m*3 17.2 C 0 km/h
586 06-06-2011 21:06:49 16.8 C 12.15 g/m*3 16.8 C 0 km/h
587 06-06-2011 21:18:03 16.5 C 12.08 g/m*3 16.5 C 0 km/h
588 06-06-2011 21:30:03 16.3 C 11.93 g/m*3 16.3 C 0 km/h
589 06-06-2011 21:42:02 16.2 C 12 g/m*3 16.2 C 0 km/h
590 06-06-2011 21:55:02 15.9 C 11.78 g/m*3 15.9 C 0 km/h
591 06-06-2011 22:07:02 15.9 C 11.92 g/m*3 15.9 C 0 km/h
592 06-06-2011 22:19:02 15.6 C 11.7 g/m*3 15.6 C 0 km/h
593 06-06-2011 22:31:02 15.3 C 11.49 g/m*3 15.3 C 0 km/h
594 06-06-2011 22:43:02 15.8 C 11.98 g/m*3 15.8 C 0 km/h
595 06-06-2011 22:55:02 15.6 C 11.84 g/m*3 15.6 C 0 km/h
596 06-06-2011 23:07:03 15.5 C 11.76 g/m*3 15.5 C 0 km/h
597 06-06-2011 23:19:03 15.7 C 11.91 g/m*3 15.7 C 0 km/h
598 06-06-2011 23:31:03 15.6 C 11.84 g/m*3 15.6 C 0 km/h
599 06-06-2011 23:43:03 15.6 C 11.84 g/m*3 15.6 C 0 km/h
600 06-06-2011 23:55:03 15.4 C 11.69 g/m*3 15.4 C 0 km/h

Legende:
   Min
   Max


Maximal/Minimal-Werte vom 02.06.2011 - 06.06.2011

Sensor Min Max Avg
Temp
(Aussen-T/F)
8.6 °C
02-06-2011  06:02:20
33.2 °C
04-06-2011  14:04:02
19.73 °C
Abs-Feuchte
(Aussen-T/F)
3.74 g/m*3
02-06-2011  12:50:02
15.58 g/m*3
05-06-2011  14:29:01
9.29 g/m*3
Windchill
(Aussen-T/F)
8.6 C
02-06-2011  06:02:20
33.2 C
04-06-2011  14:04:02
19.7 C

Die Daten stammen von einer Davis Vantage Pro 2 Wetter-Station und werden unter Linux mit der Software wview2wettercgi und aufbereitet. Alle Angaben erfolgen ohne Gewähr für ihre Vollständigkeit oder Richtigkeit.
Kontakt: Rainer Krienke krienke@uni-koblenz.de . Meine Webseiten an der Uni Koblenz oder privat.
Version: $Revision: 0.78 $